Terminal Aerodrome Forecast
Issued by NWS

Current Version | Previous Version | Text Only | Print | Product List | Glossary On
Versions: 1 2 3 4 5 6 7 8 9 10 11 12 13 14 15 16 17 18 19 20
000 FTUS41 KBOX 281424 AAC TAFBED TAF AMD KBED 281424Z 2814/2912 16009KT P6SM SKC FM290200 19007KT P6SM SCT130 FM290700 21006KT P6SM BKN070=

USA.gov is the U.S. government's official web portal to all federal, state and local government web resources and services.